sensor_id;sensor_type;location;lat;lon;timestamp;P1;durP1;ratioP1;P2;durP2;ratioP2
18947;SDS011;9607;51.600;7.558;2023-04-23T00:01:48;78.43;;;47.35;;
18947;SDS011;9607;51.600;7.558;2023-04-23T00:04:19;80.68;;;49.72;;
18947;SDS011;9607;51.600;7.558;2023-04-23T00:06:47;68.65;;;41.97;;
18947;SDS011;9607;51.600;7.558;2023-04-23T00:09:14;80.47;;;47.72;;
18947;SDS011;9607;51.600;7.558;2023-04-23T00:11:42;74.55;;;43.00;;
18947;SDS011;9607;51.600;7.558;2023-04-23T00:14:09;80.97;;;46.75;;
18947;SDS011;9607;51.600;7.558;2023-04-23T00:16:38;69.70;;;41.45;;
18947;SDS011;9607;51.600;7.558;2023-04-23T00:19:05;70.30;;;39.72;;
18947;SDS011;9607;51.600;7.558;2023-04-23T00:21:32;57.33;;;35.42;;
18947;SDS011;9607;51.600;7.558;2023-04-23T00:23:59;65.40;;;36.92;;
18947;SDS011;9607;51.600;7.558;2023-04-23T00:26:27;72.63;;;40.22;;
18947;SDS011;9607;51.600;7.558;2023-04-23T00:28:53;71.45;;;41.08;;
18947;SDS011;9607;51.600;7.558;2023-04-23T00:31:20;64.75;;;36.53;;
18947;SDS011;9607;51.600;7.558;2023-04-23T00:33:49;67.03;;;38.20;;
18947;SDS011;9607;51.600;7.558;2023-04-23T00:36:16;66.90;;;36.17;;
18947;SDS011;9607;51.600;7.558;2023-04-23T00:38:43;79.03;;;43.75;;
18947;SDS011;9607;51.600;7.558;2023-04-23T00:41:10;67.03;;;36.90;;
18947;SDS011;9607;51.600;7.558;2023-04-23T00:43:37;73.85;;;40.25;;
18947;SDS011;9607;51.600;7.558;2023-04-23T00:46:05;74.68;;;41.88;;
18947;SDS011;9607;51.600;7.558;2023-04-23T00:48:32;74.85;;;41.10;;
18947;SDS011;9607;51.600;7.558;2023-04-23T00:51:03;66.63;;;38.72;;
18947;SDS011;9607;51.600;7.558;2023-04-23T00:53:31;63.97;;;37.15;;
18947;SDS011;9607;51.600;7.558;2023-04-23T00:55:59;80.68;;;42.30;;
18947;SDS011;9607;51.600;7.558;2023-04-23T00:58:29;82.75;;;45.30;;
18947;SDS011;9607;51.600;7.558;2023-04-23T01:00:56;79.90;;;42.72;;
18947;SDS011;9607;51.600;7.558;2023-04-23T01:03:23;68.70;;;40.10;;
18947;SDS011;9607;51.600;7.558;2023-04-23T01:05:53;64.00;;;36.63;;
18947;SDS011;9607;51.600;7.558;2023-04-23T01:08:22;70.00;;;37.60;;
18947;SDS011;9607;51.600;7.558;2023-04-23T01:10:50;57.22;;;33.22;;
18947;SDS011;9607;51.600;7.558;2023-04-23T01:13:18;47.92;;;27.50;;
18947;SDS011;9607;51.600;7.558;2023-04-23T01:15:46;54.33;;;30.77;;
18947;SDS011;9607;51.600;7.558;2023-04-23T01:18:13;61.55;;;32.58;;
18947;SDS011;9607;51.600;7.558;2023-04-23T01:20:40;45.25;;;25.52;;
18947;SDS011;9607;51.600;7.558;2023-04-23T01:23:09;49.60;;;26.92;;
18947;SDS011;9607;51.600;7.558;2023-04-23T01:25:36;73.75;;;37.13;;
18947;SDS011;9607;51.600;7.558;2023-04-23T01:28:04;64.15;;;34.38;;
18947;SDS011;9607;51.600;7.558;2023-04-23T01:30:31;66.55;;;34.22;;
18947;SDS011;9607;51.600;7.558;2023-04-23T01:32:59;68.68;;;36.40;;
18947;SDS011;9607;51.600;7.558;2023-04-23T01:35:27;67.88;;;34.65;;
18947;SDS011;9607;51.600;7.558;2023-04-23T01:37:55;55.13;;;29.17;;
18947;SDS011;9607;51.600;7.558;2023-04-23T01:40:26;64.50;;;33.15;;
18947;SDS011;9607;51.600;7.558;2023-04-23T01:42:53;52.72;;;31.08;;
18947;SDS011;9607;51.600;7.558;2023-04-23T01:45:19;74.70;;;37.00;;
18947;SDS011;9607;51.600;7.558;2023-04-23T01:47:47;71.22;;;36.70;;
18947;SDS011;9607;51.600;7.558;2023-04-23T01:50:14;72.28;;;37.15;;
18947;SDS011;9607;51.600;7.558;2023-04-23T01:52:41;49.53;;;28.23;;
18947;SDS011;9607;51.600;7.558;2023-04-23T01:55:08;56.22;;;28.23;;
18947;SDS011;9607;51.600;7.558;2023-04-23T01:57:37;45.08;;;23.33;;
18947;SDS011;9607;51.600;7.558;2023-04-23T02:00:04;38.65;;;21.85;;
18947;SDS011;9607;51.600;7.558;2023-04-23T02:02:33;32.75;;;19.02;;
18947;SDS011;9607;51.600;7.558;2023-04-23T02:05:00;32.63;;;18.95;;
18947;SDS011;9607;51.600;7.558;2023-04-23T02:07:29;40.95;;;22.38;;
18947;SDS011;9607;51.600;7.558;2023-04-23T02:09:56;27.85;;;16.10;;
18947;SDS011;9607;51.600;7.558;2023-04-23T02:12:23;22.10;;;13.45;;
18947;SDS011;9607;51.600;7.558;2023-04-23T02:14:52;17.40;;;11.27;;
18947;SDS011;9607;51.600;7.558;2023-04-23T02:17:19;15.23;;;9.35;;
18947;SDS011;9607;51.600;7.558;2023-04-23T02:19:47;13.05;;;9.00;;
18947;SDS011;9607;51.600;7.558;2023-04-23T02:22:14;13.90;;;8.88;;
18947;SDS011;9607;51.600;7.558;2023-04-23T02:24:42;10.73;;;7.60;;
18947;SDS011;9607;51.600;7.558;2023-04-23T02:27:11;8.65;;;6.72;;
18947;SDS011;9607;51.600;7.558;2023-04-23T02:29:38;7.78;;;6.07;;
18947;SDS011;9607;51.600;7.558;2023-04-23T02:32:07;7.05;;;5.38;;
18947;SDS011;9607;51.600;7.558;2023-04-23T02:34:35;5.57;;;4.60;;
18947;SDS011;9607;51.600;7.558;2023-04-23T02:37:02;5.00;;;4.30;;
18947;SDS011;9607;51.600;7.558;2023-04-23T02:39:30;4.10;;;3.63;;
18947;SDS011;9607;51.600;7.558;2023-04-23T02:41:57;5.72;;;4.38;;
18947;SDS011;9607;51.600;7.558;2023-04-23T02:44:24;5.70;;;4.18;;
18947;SDS011;9607;51.600;7.558;2023-04-23T02:46:51;5.05;;;4.05;;
18947;SDS011;9607;51.600;7.558;2023-04-23T02:49:20;5.55;;;3.80;;
18947;SDS011;9607;51.600;7.558;2023-04-23T02:51:47;4.13;;;3.20;;
18947;SDS011;9607;51.600;7.558;2023-04-23T02:54:15;13.25;;;7.72;;
18947;SDS011;9607;51.600;7.558;2023-04-23T02:56:42;12.80;;;7.40;;
18947;SDS011;9607;51.600;7.558;2023-04-23T02:59:09;9.07;;;6.00;;
18947;SDS011;9607;51.600;7.558;2023-04-23T03:01:36;9.15;;;6.32;;
18947;SDS011;9607;51.600;7.558;2023-04-23T03:04:03;6.93;;;4.75;;
18947;SDS011;9607;51.600;7.558;2023-04-23T03:06:32;6.57;;;3.90;;
18947;SDS011;9607;51.600;7.558;2023-04-23T03:09:01;5.15;;;3.30;;
18947;SDS011;9607;51.600;7.558;2023-04-23T03:11:28;5.18;;;3.55;;
18947;SDS011;9607;51.600;7.558;2023-04-23T03:13:55;5.40;;;3.25;;
18947;SDS011;9607;51.600;7.558;2023-04-23T03:16:22;4.22;;;2.72;;
18947;SDS011;9607;51.600;7.558;2023-04-23T03:18:49;3.88;;;3.10;;
18947;SDS011;9607;51.600;7.558;2023-04-23T03:21:16;18.17;;;7.68;;
18947;SDS011;9607;51.600;7.558;2023-04-23T03:23:44;6.85;;;4.57;;
18947;SDS011;9607;51.600;7.558;2023-04-23T03:26:11;5.75;;;3.95;;
18947;SDS011;9607;51.600;7.558;2023-04-23T03:28:38;4.75;;;3.50;;
18947;SDS011;9607;51.600;7.558;2023-04-23T03:31:05;5.03;;;3.55;;
18947;SDS011;9607;51.600;7.558;2023-04-23T03:33:32;5.10;;;3.00;;
18947;SDS011;9607;51.600;7.558;2023-04-23T03:35:59;3.08;;;2.35;;
18947;SDS011;9607;51.600;7.558;2023-04-23T03:38:26;5.93;;;3.72;;
18947;SDS011;9607;51.600;7.558;2023-04-23T03:40:54;2.85;;;2.38;;
18947;SDS011;9607;51.600;7.558;2023-04-23T03:43:21;3.15;;;2.65;;
18947;SDS011;9607;51.600;7.558;2023-04-23T03:45:48;3.53;;;2.47;;
18947;SDS011;9607;51.600;7.558;2023-04-23T03:48:15;4.43;;;3.58;;
18947;SDS011;9607;51.600;7.558;2023-04-23T03:50:42;8.57;;;4.80;;
18947;SDS011;9607;51.600;7.558;2023-04-23T03:53:09;8.48;;;4.60;;
18947;SDS011;9607;51.600;7.558;2023-04-23T03:55:36;12.40;;;6.13;;
18947;SDS011;9607;51.600;7.558;2023-04-23T03:58:04;8.70;;;5.00;;
18947;SDS011;9607;51.600;7.558;2023-04-23T04:00:33;12.43;;;6.88;;
18947;SDS011;9607;51.600;7.558;2023-04-23T04:03:00;8.57;;;4.38;;
18947;SDS011;9607;51.600;7.558;2023-04-23T04:05:28;6.18;;;3.47;;
18947;SDS011;9607;51.600;7.558;2023-04-23T04:07:55;6.72;;;4.10;;
18947;SDS011;9607;51.600;7.558;2023-04-23T04:10:21;8.35;;;4.70;;
18947;SDS011;9607;51.600;7.558;2023-04-23T04:12:48;6.20;;;4.10;;
18947;SDS011;9607;51.600;7.558;2023-04-23T04:15:16;9.32;;;5.55;;
18947;SDS011;9607;51.600;7.558;2023-04-23T04:17:45;5.85;;;3.88;;
18947;SDS011;9607;51.600;7.558;2023-04-23T04:20:12;8.43;;;5.70;;
18947;SDS011;9607;51.600;7.558;2023-04-23T04:22:38;7.82;;;4.90;;
18947;SDS011;9607;51.600;7.558;2023-04-23T04:25:06;9.90;;;5.22;;
18947;SDS011;9607;51.600;7.558;2023-04-23T04:27:33;9.60;;;5.97;;
18947;SDS011;9607;51.600;7.558;2023-04-23T04:30:01;6.40;;;4.28;;
18947;SDS011;9607;51.600;7.558;2023-04-23T04:32:30;6.32;;;3.97;;
18947;SDS011;9607;51.600;7.558;2023-04-23T04:34:58;4.20;;;3.35;;
18947;SDS011;9607;51.600;7.558;2023-04-23T04:37:26;11.07;;;6.03;;
18947;SDS011;9607;51.600;7.558;2023-04-23T04:39:53;8.27;;;5.05;;
18947;SDS011;9607;51.600;7.558;2023-04-23T04:42:21;5.80;;;4.00;;
18947;SDS011;9607;51.600;7.558;2023-04-23T04:44:48;7.05;;;4.75;;
18947;SDS011;9607;51.600;7.558;2023-04-23T04:47:17;7.57;;;5.10;;
18947;SDS011;9607;51.600;7.558;2023-04-23T04:49:46;12.10;;;6.43;;
18947;SDS011;9607;51.600;7.558;2023-04-23T04:52:12;9.85;;;6.10;;
18947;SDS011;9607;51.600;7.558;2023-04-23T04:54:39;7.05;;;4.97;;
18947;SDS011;9607;51.600;7.558;2023-04-23T04:57:06;7.50;;;4.78;;
18947;SDS011;9607;51.600;7.558;2023-04-23T04:59:33;7.45;;;4.68;;
18947;SDS011;9607;51.600;7.558;2023-04-23T05:02:00;7.82;;;4.63;;
18947;SDS011;9607;51.600;7.558;2023-04-23T05:04:27;7.13;;;4.40;;
18947;SDS011;9607;51.600;7.558;2023-04-23T05:06:55;6.00;;;4.40;;
18947;SDS011;9607;51.600;7.558;2023-04-23T05:09:22;4.22;;;3.40;;
18947;SDS011;9607;51.600;7.558;2023-04-23T05:11:50;4.53;;;3.00;;
18947;SDS011;9607;51.600;7.558;2023-04-23T05:14:17;3.33;;;2.70;;
18947;SDS011;9607;51.600;7.558;2023-04-23T05:16:44;3.97;;;2.72;;
18947;SDS011;9607;51.600;7.558;2023-04-23T05:19:11;4.50;;;3.40;;
18947;SDS011;9607;51.600;7.558;2023-04-23T05:21:38;3.97;;;2.72;;
18947;SDS011;9607;51.600;7.558;2023-04-23T05:24:06;4.25;;;3.10;;
18947;SDS011;9607;51.600;7.558;2023-04-23T05:26:33;4.88;;;3.30;;
18947;SDS011;9607;51.600;7.558;2023-04-23T05:29:00;6.63;;;3.78;;
18947;SDS011;9607;51.600;7.558;2023-04-23T05:31:28;6.60;;;4.20;;
18947;SDS011;9607;51.600;7.558;2023-04-23T05:33:55;4.78;;;3.40;;
18947;SDS011;9607;51.600;7.558;2023-04-23T05:36:22;4.85;;;3.22;;
18947;SDS011;9607;51.600;7.558;2023-04-23T05:38:48;7.75;;;4.40;;
18947;SDS011;9607;51.600;7.558;2023-04-23T05:41:17;10.95;;;6.45;;
18947;SDS011;9607;51.600;7.558;2023-04-23T05:43:43;10.25;;;5.78;;
18947;SDS011;9607;51.600;7.558;2023-04-23T05:46:10;12.10;;;7.30;;
18947;SDS011;9607;51.600;7.558;2023-04-23T05:48:37;19.52;;;9.50;;
18947;SDS011;9607;51.600;7.558;2023-04-23T05:51:04;16.35;;;8.57;;
18947;SDS011;9607;51.600;7.558;2023-04-23T05:53:31;12.27;;;6.55;;
18947;SDS011;9607;51.600;7.558;2023-04-23T05:55:58;9.65;;;6.00;;
18947;SDS011;9607;51.600;7.558;2023-04-23T05:58:26;8.55;;;5.60;;
18947;SDS011;9607;51.600;7.558;2023-04-23T06:00:53;8.40;;;4.70;;
18947;SDS011;9607;51.600;7.558;2023-04-23T06:03:21;5.10;;;3.70;;
18947;SDS011;9607;51.600;7.558;2023-04-23T06:05:48;6.50;;;3.92;;
18947;SDS011;9607;51.600;7.558;2023-04-23T06:08:15;3.75;;;2.85;;
18947;SDS011;9607;51.600;7.558;2023-04-23T06:10:42;3.53;;;2.72;;
18947;SDS011;9607;51.600;7.558;2023-04-23T06:13:09;2.70;;;2.15;;
18947;SDS011;9607;51.600;7.558;2023-04-23T06:15:37;2.67;;;2.47;;
18947;SDS011;9607;51.600;7.558;2023-04-23T06:18:05;6.35;;;3.92;;
18947;SDS011;9607;51.600;7.558;2023-04-23T06:20:32;4.43;;;3.20;;
18947;SDS011;9607;51.600;7.558;2023-04-23T06:22:58;4.47;;;3.40;;
18947;SDS011;9607;51.600;7.558;2023-04-23T06:25:26;5.75;;;3.95;;
18947;SDS011;9607;51.600;7.558;2023-04-23T06:27:53;5.75;;;3.33;;
18947;SDS011;9607;51.600;7.558;2023-04-23T06:30:21;12.55;;;7.70;;
18947;SDS011;9607;51.600;7.558;2023-04-23T06:32:50;33.95;;;17.38;;
18947;SDS011;9607;51.600;7.558;2023-04-23T06:35:17;30.10;;;18.45;;
18947;SDS011;9607;51.600;7.558;2023-04-23T06:37:44;27.48;;;17.80;;
18947;SDS011;9607;51.600;7.558;2023-04-23T06:40:11;27.73;;;19.15;;
18947;SDS011;9607;51.600;7.558;2023-04-23T06:42:38;25.00;;;18.48;;
18947;SDS011;9607;51.600;7.558;2023-04-23T06:45:05;19.40;;;16.73;;
18947;SDS011;9607;51.600;7.558;2023-04-23T06:47:33;21.38;;;16.60;;
18947;SDS011;9607;51.600;7.558;2023-04-23T06:50:01;26.27;;;18.13;;
18947;SDS011;9607;51.600;7.558;2023-04-23T06:52:29;18.45;;;15.63;;
18947;SDS011;9607;51.600;7.558;2023-04-23T06:54:56;17.25;;;15.38;;
18947;SDS011;9607;51.600;7.558;2023-04-23T06:57:23;14.07;;;12.68;;
18947;SDS011;9607;51.600;7.558;2023-04-23T06:59:50;12.75;;;11.45;;
18947;SDS011;9607;51.600;7.558;2023-04-23T07:02:17;14.18;;;12.68;;
18947;SDS011;9607;51.600;7.558;2023-04-23T07:04:44;12.27;;;11.02;;
18947;SDS011;9607;51.600;7.558;2023-04-23T07:07:12;12.65;;;10.77;;
18947;SDS011;9607;51.600;7.558;2023-04-23T07:09:39;11.48;;;10.27;;
18947;SDS011;9607;51.600;7.558;2023-04-23T07:12:06;10.18;;;9.00;;
18947;SDS011;9607;51.600;7.558;2023-04-23T07:14:33;9.45;;;8.55;;
18947;SDS011;9607;51.600;7.558;2023-04-23T07:17:00;8.40;;;7.47;;
18947;SDS011;9607;51.600;7.558;2023-04-23T07:19:28;7.88;;;7.18;;
18947;SDS011;9607;51.600;7.558;2023-04-23T07:21:55;7.20;;;6.50;;
18947;SDS011;9607;51.600;7.558;2023-04-23T07:24:23;7.47;;;6.78;;
18947;SDS011;9607;51.600;7.558;2023-04-23T07:26:50;8.13;;;7.32;;
18947;SDS011;9607;51.600;7.558;2023-04-23T07:29:17;7.88;;;7.00;;
18947;SDS011;9607;51.600;7.558;2023-04-23T07:31:45;8.65;;;7.00;;
18947;SDS011;9607;51.600;7.558;2023-04-23T07:34:12;7.45;;;6.75;;
18947;SDS011;9607;51.600;7.558;2023-04-23T07:36:40;7.32;;;6.72;;
18947;SDS011;9607;51.600;7.558;2023-04-23T07:39:06;10.57;;;7.28;;
18947;SDS011;9607;51.600;7.558;2023-04-23T07:41:36;8.07;;;7.18;;
18947;SDS011;9607;51.600;7.558;2023-04-23T07:44:03;7.45;;;6.53;;
18947;SDS011;9607;51.600;7.558;2023-04-23T07:46:30;8.73;;;6.57;;
18947;SDS011;9607;51.600;7.558;2023-04-23T07:48:57;7.35;;;6.55;;
18947;SDS011;9607;51.600;7.558;2023-04-23T07:51:24;7.75;;;6.60;;
18947;SDS011;9607;51.600;7.558;2023-04-23T07:53:51;8.85;;;5.80;;
18947;SDS011;9607;51.600;7.558;2023-04-23T07:56:20;6.60;;;5.53;;
18947;SDS011;9607;51.600;7.558;2023-04-23T07:58:50;7.03;;;6.22;;
18947;SDS011;9607;51.600;7.558;2023-04-23T08:04:10;6.40;;;5.70;;
18947;SDS011;9607;51.600;7.558;2023-04-23T08:06:37;6.85;;;6.07;;
18947;SDS011;9607;51.600;7.558;2023-04-23T08:09:04;8.90;;;6.13;;
18947;SDS011;9607;51.600;7.558;2023-04-23T08:11:31;7.07;;;6.35;;
18947;SDS011;9607;51.600;7.558;2023-04-23T08:13:59;7.65;;;6.10;;
18947;SDS011;9607;51.600;7.558;2023-04-23T08:16:26;8.57;;;5.75;;
18947;SDS011;9607;51.600;7.558;2023-04-23T08:18:53;7.93;;;5.20;;
18947;SDS011;9607;51.600;7.558;2023-04-23T08:23:55;6.15;;;5.40;;
18947;SDS011;9607;51.600;7.558;2023-04-23T08:26:22;5.72;;;4.60;;
18947;SDS011;9607;51.600;7.558;2023-04-23T08:28:51;4.90;;;4.32;;
18947;SDS011;9607;51.600;7.558;2023-04-23T08:31:19;6.97;;;5.00;;
18947;SDS011;9607;51.600;7.558;2023-04-23T08:33:46;6.55;;;4.95;;
18947;SDS011;9607;51.600;7.558;2023-04-23T08:36:13;7.00;;;4.55;;
18947;SDS011;9607;51.600;7.558;2023-04-23T08:38:40;4.95;;;4.28;;
18947;SDS011;9607;51.600;7.558;2023-04-23T08:41:08;7.18;;;3.92;;
18947;SDS011;9607;51.600;7.558;2023-04-23T08:43:39;5.22;;;3.92;;
18947;SDS011;9607;51.600;7.558;2023-04-23T08:46:12;6.65;;;4.40;;
18947;SDS011;9607;51.600;7.558;2023-04-23T08:48:41;8.10;;;4.57;;
18947;SDS011;9607;51.600;7.558;2023-04-23T08:51:12;4.78;;;4.00;;
18947;SDS011;9607;51.600;7.558;2023-04-23T08:53:43;6.20;;;4.70;;
18947;SDS011;9607;51.600;7.558;2023-04-23T08:56:10;6.55;;;4.43;;
18947;SDS011;9607;51.600;7.558;2023-04-23T08:58:38;3.55;;;3.10;;
18947;SDS011;9607;51.600;7.558;2023-04-23T09:01:06;4.22;;;3.42;;
18947;SDS011;9607;51.600;7.558;2023-04-23T09:03:34;4.50;;;3.35;;
18947;SDS011;9607;51.600;7.558;2023-04-23T09:06:02;6.68;;;3.42;;
18947;SDS011;9607;51.600;7.558;2023-04-23T09:08:30;5.90;;;3.58;;
18947;SDS011;9607;51.600;7.558;2023-04-23T09:10:58;5.47;;;3.33;;
18947;SDS011;9607;51.600;7.558;2023-04-23T09:13:26;3.72;;;3.00;;
18947;SDS011;9607;51.600;7.558;2023-04-23T09:15:54;4.65;;;2.65;;
18947;SDS011;9607;51.600;7.558;2023-04-23T09:18:21;5.13;;;3.05;;
18947;SDS011;9607;51.600;7.558;2023-04-23T09:20:48;6.93;;;2.72;;
18947;SDS011;9607;51.600;7.558;2023-04-23T09:23:16;3.38;;;2.78;;
18947;SDS011;9607;51.600;7.558;2023-04-23T09:25:47;3.55;;;2.42;;
18947;SDS011;9607;51.600;7.558;2023-04-23T09:28:13;4.13;;;2.35;;
18947;SDS011;9607;51.600;7.558;2023-04-23T09:30:42;6.05;;;2.58;;
18947;SDS011;9607;51.600;7.558;2023-04-23T09:33:09;4.85;;;2.50;;
18947;SDS011;9607;51.600;7.558;2023-04-23T09:35:37;3.50;;;2.55;;
18947;SDS011;9607;51.600;7.558;2023-04-23T09:38:06;5.28;;;3.33;;
18947;SDS011;9607;51.600;7.558;2023-04-23T09:40:35;3.92;;;2.25;;
18947;SDS011;9607;51.600;7.558;2023-04-23T09:43:03;6.50;;;2.55;;
18947;SDS011;9607;51.600;7.558;2023-04-23T09:45:31;4.80;;;2.60;;
18947;SDS011;9607;51.600;7.558;2023-04-23T09:47:59;4.75;;;2.38;;
18947;SDS011;9607;51.600;7.558;2023-04-23T09:50:32;4.05;;;2.28;;
18947;SDS011;9607;51.600;7.558;2023-04-23T09:53:01;8.55;;;2.50;;
18947;SDS011;9607;51.600;7.558;2023-04-23T09:55:28;5.20;;;2.47;;
18947;SDS011;9607;51.600;7.558;2023-04-23T09:58:00;4.55;;;2.55;;
18947;SDS011;9607;51.600;7.558;2023-04-23T10:00:31;6.35;;;2.30;;
18947;SDS011;9607;51.600;7.558;2023-04-23T10:02:59;3.30;;;1.92;;
18947;SDS011;9607;51.600;7.558;2023-04-23T10:05:26;6.18;;;2.95;;
18947;SDS011;9607;51.600;7.558;2023-04-23T10:07:54;4.75;;;2.42;;
18947;SDS011;9607;51.600;7.558;2023-04-23T10:10:21;4.53;;;2.00;;
18947;SDS011;9607;51.600;7.558;2023-04-23T10:12:49;3.83;;;2.17;;
18947;SDS011;9607;51.600;7.558;2023-04-23T10:15:19;4.68;;;2.38;;
18947;SDS011;9607;51.600;7.558;2023-04-23T10:17:46;5.88;;;1.95;;
18947;SDS011;9607;51.600;7.558;2023-04-23T10:20:15;4.45;;;1.50;;
18947;SDS011;9607;51.600;7.558;2023-04-23T10:22:43;2.95;;;1.70;;
18947;SDS011;9607;51.600;7.558;2023-04-23T10:25:11;5.55;;;1.67;;
18947;SDS011;9607;51.600;7.558;2023-04-23T10:27:39;3.47;;;1.42;;
18947;SDS011;9607;51.600;7.558;2023-04-23T10:30:07;4.85;;;1.48;;
18947;SDS011;9607;51.600;7.558;2023-04-23T10:32:37;1.63;;;1.20;;
18947;SDS011;9607;51.600;7.558;2023-04-23T10:35:04;2.38;;;1.90;;
18947;SDS011;9607;51.600;7.558;2023-04-23T10:37:32;2.72;;;1.83;;
18947;SDS011;9607;51.600;7.558;2023-04-23T10:40:03;3.53;;;1.73;;
18947;SDS011;9607;51.600;7.558;2023-04-23T10:42:36;2.90;;;1.42;;
18947;SDS011;9607;51.600;7.558;2023-04-23T10:45:08;4.95;;;1.55;;
18947;SDS011;9607;51.600;7.558;2023-04-23T10:47:42;3.65;;;1.55;;
18947;SDS011;9607;51.600;7.558;2023-04-23T10:50:23;4.47;;;1.40;;
18947;SDS011;9607;51.600;7.558;2023-04-23T10:52:50;2.33;;;1.52;;
18947;SDS011;9607;51.600;7.558;2023-04-23T10:55:18;2.03;;;1.08;;
18947;SDS011;9607;51.600;7.558;2023-04-23T10:57:59;2.92;;;1.30;;
18947;SDS011;9607;51.600;7.558;2023-04-23T11:00:28;4.22;;;1.50;;
18947;SDS011;9607;51.600;7.558;2023-04-23T11:03:19;3.03;;;1.30;;
18947;SDS011;9607;51.600;7.558;2023-04-23T11:05:54;1.88;;;1.20;;
18947;SDS011;9607;51.600;7.558;2023-04-23T11:08:20;3.50;;;1.35;;
18947;SDS011;9607;51.600;7.558;2023-04-23T11:10:52;2.83;;;1.20;;
18947;SDS011;9607;51.600;7.558;2023-04-23T11:13:21;2.17;;;1.17;;
18947;SDS011;9607;51.600;7.558;2023-04-23T11:21:21;2.50;;;1.38;;
18947;SDS011;9607;51.600;7.558;2023-04-23T11:23:47;2.92;;;1.00;;
18947;SDS011;9607;51.600;7.558;2023-04-23T11:26:14;1.70;;;1.10;;
18947;SDS011;9607;51.600;7.558;2023-04-23T11:28:43;2.55;;;1.23;;
18947;SDS011;9607;51.600;7.558;2023-04-23T11:31:11;3.97;;;1.40;;
18947;SDS011;9607;51.600;7.558;2023-04-23T11:49:12;2.08;;;1.20;;
18947;SDS011;9607;51.600;7.558;2023-04-23T11:51:39;2.28;;;1.02;;
18947;SDS011;9607;51.600;7.558;2023-04-23T11:54:08;2.95;;;1.50;;
18947;SDS011;9607;51.600;7.558;2023-04-23T11:56:36;7.82;;;1.63;;
18947;SDS011;9607;51.600;7.558;2023-04-23T11:59:03;2.00;;;1.10;;
18947;SDS011;9607;51.600;7.558;2023-04-23T12:01:40;1.88;;;1.20;;
18947;SDS011;9607;51.600;7.558;2023-04-23T12:04:09;2.33;;;1.25;;
18947;SDS011;9607;51.600;7.558;2023-04-23T12:06:39;2.35;;;1.30;;
18947;SDS011;9607;51.600;7.558;2023-04-23T12:09:08;1.88;;;0.93;;
18947;SDS011;9607;51.600;7.558;2023-04-23T12:11:35;1.95;;;0.80;;
18947;SDS011;9607;51.600;7.558;2023-04-23T12:14:03;1.70;;;1.02;;
18947;SDS011;9607;51.600;7.558;2023-04-23T12:16:32;1.67;;;1.00;;
18947;SDS011;9607;51.600;7.558;2023-04-23T12:19:04;2.53;;;1.17;;
18947;SDS011;9607;51.600;7.558;2023-04-23T12:21:35;2.90;;;1.17;;
18947;SDS011;9607;51.600;7.558;2023-04-23T12:24:13;0.98;;;0.80;;
18947;SDS011;9607;51.600;7.558;2023-04-23T12:26:40;3.00;;;1.20;;
18947;SDS011;9607;51.600;7.558;2023-04-23T12:29:07;1.65;;;1.05;;
18947;SDS011;9607;51.600;7.558;2023-04-23T12:31:35;2.88;;;1.48;;
18947;SDS011;9607;51.600;7.558;2023-04-23T12:34:03;1.45;;;0.98;;
18947;SDS011;9607;51.600;7.558;2023-04-23T12:36:30;2.08;;;1.13;;
18947;SDS011;9607;51.600;7.558;2023-04-23T12:41:53;2.30;;;1.15;;
18947;SDS011;9607;51.600;7.558;2023-04-23T12:44:21;2.35;;;1.20;;
18947;SDS011;9607;51.600;7.558;2023-04-23T12:46:48;2.40;;;1.10;;
18947;SDS011;9607;51.600;7.558;2023-04-23T12:49:19;2.33;;;1.60;;
18947;SDS011;9607;51.600;7.558;2023-04-23T12:51:46;1.88;;;1.20;;
18947;SDS011;9607;51.600;7.558;2023-04-23T12:54:13;2.78;;;1.25;;
18947;SDS011;9607;51.600;7.558;2023-04-23T12:56:41;3.47;;;1.15;;
18947;SDS011;9607;51.600;7.558;2023-04-23T12:59:09;2.97;;;1.38;;
18947;SDS011;9607;51.600;7.558;2023-04-23T13:01:37;3.35;;;1.20;;
18947;SDS011;9607;51.600;7.558;2023-04-23T13:04:04;1.83;;;1.05;;
18947;SDS011;9607;51.600;7.558;2023-04-23T13:06:32;2.00;;;1.05;;
18947;SDS011;9607;51.600;7.558;2023-04-23T13:11:28;1.25;;;0.77;;
18947;SDS011;9607;51.600;7.558;2023-04-23T13:13:56;1.58;;;0.90;;
18947;SDS011;9607;51.600;7.558;2023-04-23T13:16:23;1.65;;;1.05;;
18947;SDS011;9607;51.600;7.558;2023-04-23T13:18:51;1.63;;;1.27;;
18947;SDS011;9607;51.600;7.558;2023-04-23T13:21:23;1.73;;;1.10;;
18947;SDS011;9607;51.600;7.558;2023-04-23T13:23:50;3.00;;;1.15;;
18947;SDS011;9607;51.600;7.558;2023-04-23T13:26:17;2.15;;;1.20;;
18947;SDS011;9607;51.600;7.558;2023-04-23T13:28:44;1.65;;;1.10;;
18947;SDS011;9607;51.600;7.558;2023-04-23T13:31:12;1.58;;;1.00;;
18947;SDS011;9607;51.600;7.558;2023-04-23T13:33:39;2.97;;;1.00;;
18947;SDS011;9607;51.600;7.558;2023-04-23T13:36:06;1.65;;;1.00;;
18947;SDS011;9607;51.600;7.558;2023-04-23T13:38:34;2.00;;;1.13;;
18947;SDS011;9607;51.600;7.558;2023-04-23T13:41:00;1.15;;;0.60;;
18947;SDS011;9607;51.600;7.558;2023-04-23T13:43:27;1.52;;;0.90;;
18947;SDS011;9607;51.600;7.558;2023-04-23T13:45:54;2.13;;;1.00;;
18947;SDS011;9607;51.600;7.558;2023-04-23T13:48:22;2.22;;;0.90;;
18947;SDS011;9607;51.600;7.558;2023-04-23T13:50:52;1.70;;;1.00;;
18947;SDS011;9607;51.600;7.558;2023-04-23T13:53:20;0.82;;;0.75;;
18947;SDS011;9607;51.600;7.558;2023-04-23T13:55:46;4.65;;;0.90;;
18947;SDS011;9607;51.600;7.558;2023-04-23T13:58:13;1.75;;;0.75;;
18947;SDS011;9607;51.600;7.558;2023-04-23T14:00:40;2.70;;;0.95;;
18947;SDS011;9607;51.600;7.558;2023-04-23T14:03:07;1.83;;;0.80;;
18947;SDS011;9607;51.600;7.558;2023-04-23T14:05:36;2.65;;;0.80;;
18947;SDS011;9607;51.600;7.558;2023-04-23T14:08:03;0.82;;;0.68;;
18947;SDS011;9607;51.600;7.558;2023-04-23T14:10:30;1.30;;;0.90;;
18947;SDS011;9607;51.600;7.558;2023-04-23T14:12:57;1.67;;;0.80;;
18947;SDS011;9607;51.600;7.558;2023-04-23T14:15:24;2.90;;;1.00;;
18947;SDS011;9607;51.600;7.558;2023-04-23T14:17:52;1.35;;;0.90;;
18947;SDS011;9607;51.600;7.558;2023-04-23T14:20:20;2.65;;;1.10;;
18947;SDS011;9607;51.600;7.558;2023-04-23T14:22:49;2.55;;;0.90;;
18947;SDS011;9607;51.600;7.558;2023-04-23T14:25:23;1.90;;;0.80;;
18947;SDS011;9607;51.600;7.558;2023-04-23T14:27:54;1.27;;;0.70;;
18947;SDS011;9607;51.600;7.558;2023-04-23T14:30:22;2.15;;;0.70;;
18947;SDS011;9607;51.600;7.558;2023-04-23T14:32:51;1.20;;;0.70;;
18947;SDS011;9607;51.600;7.558;2023-04-23T14:35:20;1.55;;;0.80;;
18947;SDS011;9607;51.600;7.558;2023-04-23T14:37:50;3.40;;;0.90;;
18947;SDS011;9607;51.600;7.558;2023-04-23T14:40:16;1.33;;;0.65;;
18947;SDS011;9607;51.600;7.558;2023-04-23T14:42:45;1.83;;;0.88;;
18947;SDS011;9607;51.600;7.558;2023-04-23T14:45:13;1.88;;;0.98;;
18947;SDS011;9607;51.600;7.558;2023-04-23T14:47:42;1.15;;;0.50;;
18947;SDS011;9607;51.600;7.558;2023-04-23T14:50:12;5.80;;;1.70;;
18947;SDS011;9607;51.600;7.558;2023-04-23T14:52:42;1.33;;;0.80;;
18947;SDS011;9607;51.600;7.558;2023-04-23T14:55:14;2.08;;;0.82;;
18947;SDS011;9607;51.600;7.558;2023-04-23T14:57:41;1.77;;;0.60;;
18947;SDS011;9607;51.600;7.558;2023-04-23T15:00:09;1.95;;;0.75;;
18947;SDS011;9607;51.600;7.558;2023-04-23T15:02:39;1.83;;;0.75;;
18947;SDS011;9607;51.600;7.558;2023-04-23T15:05:07;1.50;;;0.63;;
18947;SDS011;9607;51.600;7.558;2023-04-23T15:07:34;1.08;;;0.65;;
18947;SDS011;9607;51.600;7.558;2023-04-23T15:10:00;1.00;;;0.50;;
18947;SDS011;9607;51.600;7.558;2023-04-23T15:15:21;1.77;;;0.70;;
18947;SDS011;9607;51.600;7.558;2023-04-23T15:17:52;1.10;;;0.80;;
18947;SDS011;9607;51.600;7.558;2023-04-23T15:20:19;1.15;;;0.77;;
18947;SDS011;9607;51.600;7.558;2023-04-23T15:22:46;1.48;;;0.80;;
18947;SDS011;9607;51.600;7.558;2023-04-23T15:25:14;1.65;;;0.90;;
18947;SDS011;9607;51.600;7.558;2023-04-23T15:27:41;1.52;;;0.60;;
18947;SDS011;9607;51.600;7.558;2023-04-23T15:30:10;1.52;;;0.60;;
18947;SDS011;9607;51.600;7.558;2023-04-23T15:32:37;1.95;;;0.70;;
18947;SDS011;9607;51.600;7.558;2023-04-23T15:35:04;1.38;;;0.80;;